»·PEaware :: N2442P KRDD-KSAC

N2442P :: KRDD-KSAC

FLIGHT INFORMATION

Flight Status: Arrived
Operator: Privately registered:
United States
More flights under this callsign
Pilot: Ken Q. (14290)
Aircraft: MOONEY M-20K/M ENCORE BRAVO
(M20T)
More flights by this aircraft type
Origin: KRDD Redding Mun
United States
Destination: KSAC Sacramento Executive
United States
More flights between these airports :: More routes between these airports
Route: RBL MVY MCC
File this flight plan on PilotEdge
Remarks:
Altitude:
(Current/Filed)
5,500ft
Speed:
(Current/Filed)
175kts
Departed: 04-Nov-21 01:06 PM
Arrived: 04-Nov-21 02:00 PM
Distance/Time
Traveled:
125nm/0:54
Distance/Time
To Go:
Arrived

Flight Plot

Page will automatically refresh every two minutes.

Flight plan parsing failed; only flown route is shown


Map Options




Map Legend


Flown Route
Filed Route
Departure Airport
Arrival Airport
Navaid (VOR, NDB)
Fix

Horizontal Profiles

Position Reports

Time Latitude Longitude Heading Altitude Ground
Speed
04-Nov-21 12:36 40.510600 -122.297775 356 506ft 0kts
04-Nov-21 12:37 40.510600 -122.297775 356 506ft 0kts
04-Nov-21 12:38 40.510600 -122.297775 356 506ft 0kts
04-Nov-21 12:39 40.510600 -122.297775 356 506ft 0kts
04-Nov-21 12:40 40.510600 -122.297775 356 506ft 0kts
04-Nov-21 12:41 40.510600 -122.297775 356 506ft 0kts
04-Nov-21 12:42 40.510600 -122.297775 356 506ft 0kts
04-Nov-21 12:43 40.510600 -122.297775 356 506ft 0kts
04-Nov-21 12:44 40.510600 -122.297775 356 506ft 0kts
04-Nov-21 12:45 40.510600 -122.297775 356 506ft 0kts
04-Nov-21 12:46 40.510600 -122.297775 356 506ft 0kts
04-Nov-21 12:47 40.510600 -122.297775 356 506ft 0kts
04-Nov-21 12:48 40.510600 -122.297775 356 506ft 0kts
04-Nov-21 12:49 40.510601 -122.297775 356 506ft 0kts
04-Nov-21 12:50 40.510601 -122.297775 356 506ft 0kts
04-Nov-21 12:51 40.510602 -122.297775 356 506ft 0kts
04-Nov-21 12:52 40.510604 -122.297775 356 506ft 0kts
04-Nov-21 12:53 40.510611 -122.297776 355 506ft 0kts
04-Nov-21 12:54 40.510612 -122.297776 355 506ft 0kts
04-Nov-21 12:55 40.510612 -122.297776 355 506ft 0kts
04-Nov-21 12:56 40.510612 -122.297776 355 506ft 0kts
04-Nov-21 12:57 40.510612 -122.297776 355 506ft 0kts
04-Nov-21 12:58 40.510704 -122.297807 335 506ft 4kts
04-Nov-21 12:59 40.511467 -122.297835 56 506ft 5kts
04-Nov-21 13:00 40.512900 -122.296324 1 506ft 6kts
04-Nov-21 13:01 40.515079 -122.296312 1 506ft 8kts
04-Nov-21 13:02 40.519095 -122.296284 359 506ft 4kts
04-Nov-21 13:03 40.520225 -122.295984 73 506ft 1kts
04-Nov-21 13:04 40.519105 -122.294874 180 506ft 37kts
04-Nov-21 13:05 40.497218 -122.294241 176 1123ft 98kts
04-Nov-21 13:06 40.465406 -122.292679 176 1795ft 121kts
04-Nov-21 13:07 40.431375 -122.291582 176 2410ft 123kts
04-Nov-21 13:08 40.397373 -122.291174 177 3021ft 122kts
04-Nov-21 13:09 40.363622 -122.285471 166 3638ft 123kts
04-Nov-21 13:10 40.329941 -122.274935 166 4259ft 127kts
04-Nov-21 13:11 40.294420 -122.264123 167 4878ft 133kts
04-Nov-21 13:12 40.257793 -122.252654 167 5415ft 141kts
04-Nov-21 13:13 40.215863 -122.244719 175 5514ft 155kts
04-Nov-21 13:14 40.171540 -122.239663 175 5531ft 162kts
04-Nov-21 13:15 40.126208 -122.234608 175 5534ft 165kts
04-Nov-21 13:16 40.082396 -122.217589 153 5529ft 166kts
04-Nov-21 13:17 40.041763 -122.189366 155 5532ft 164kts
04-Nov-21 13:18 40.001171 -122.164249 156 5578ft 166kts
04-Nov-21 13:19 39.959260 -122.138586 156 5539ft 165kts
04-Nov-21 13:21 39.917841 -122.113224 156 5545ft 163kts
04-Nov-21 13:22 39.876880 -122.088143 156 5547ft 161kts
04-Nov-21 13:23 39.836349 -122.063311 156 5552ft 160kts
04-Nov-21 13:24 39.796041 -122.038452 155 5554ft 160kts
04-Nov-21 13:25 39.756174 -122.012757 155 5557ft 160kts
04-Nov-21 13:26 39.716166 -121.986987 155 5558ft 160kts
04-Nov-21 13:27 39.676214 -121.961100 155 5558ft 160kts
04-Nov-21 13:28 39.636253 -121.935093 155 5558ft 160kts
04-Nov-21 13:29 39.596022 -121.908827 155 5511ft 161kts
04-Nov-21 13:30 39.555989 -121.882579 155 5512ft 161kts
04-Nov-21 13:31 39.515968 -121.856220 155 5512ft 161kts
04-Nov-21 13:32 39.476302 -121.829225 153 5511ft 162kts
04-Nov-21 13:33 39.436521 -121.800513 153 5511ft 165kts
04-Nov-21 13:34 39.396552 -121.771501 153 5512ft 164kts
04-Nov-21 13:35 39.356866 -121.742511 153 5511ft 164kts
04-Nov-21 13:36 39.317190 -121.713379 153 5510ft 164kts
04-Nov-21 13:37 39.277417 -121.684229 153 5508ft 164kts
04-Nov-21 13:38 39.237653 -121.654946 153 5216ft 167kts
04-Nov-21 13:39 39.197083 -121.625126 153 4618ft 167kts
04-Nov-21 13:40 39.155599 -121.598115 156 4136ft 167kts
04-Nov-21 13:41 39.114795 -121.572425 159 4104ft 160kts
04-Nov-21 13:42 39.073361 -121.553243 163 4101ft 156kts
04-Nov-21 13:43 39.032800 -121.533667 159 4100ft 155kts
04-Nov-21 13:44 38.993430 -121.511428 159 4093ft 148kts
04-Nov-21 13:44 38.963134 -121.494011 159 3853ft 145kts
04-Nov-21 13:45 38.925466 -121.472608 159 3164ft 149kts
04-Nov-21 13:47 38.880742 -121.447330 157 2357ft 151kts
04-Nov-21 13:48 38.842895 -121.422272 154 1635ft 153kts
04-Nov-21 13:48 38.810984 -121.413688 176 1484ft 130kts
04-Nov-21 13:49 38.773809 -121.410994 180 1493ft 136kts
04-Nov-21 13:50 38.735316 -121.409861 180 1493ft 138kts
04-Nov-21 13:52 38.690807 -121.409113 187 1487ft 129kts
04-Nov-21 13:52 38.663769 -121.421461 198 1489ft 119kts
04-Nov-21 13:53 38.634089 -121.434511 199 1353ft 116kts
04-Nov-21 13:54 38.603076 -121.447219 197 1097ft 114kts
04-Nov-21 13:55 38.573943 -121.455215 197 895ft 96kts
04-Nov-21 13:56 38.550698 -121.464736 200 720ft 86kts
04-Nov-21 13:57 38.530559 -121.479362 214 395ft 81kts
04-Nov-21 13:58 38.512973 -121.494215 213 27ft 51kts
04-Nov-21 13:59 38.511360 -121.496768 263 27ft 3kts
04-Nov-21 14:00 38.513552 -121.495574 347 27ft 5kts
04-Nov-21 14:01 38.514137 -121.498363 221 27ft 0kts
04-Nov-21 14:02 38.514137 -121.498363 221 27ft 0kts

Navigation Log

Ident Type
Flight plan parsing failed, navigation log unavailable